Wayne Bethel — WDH9869 — position and weather

sailwx.info

Track history (hours):
 
Tides and Currents Weather Stations Pressure Air Temp Water Temp Dewpoint Dewpoint Depression Visibility Wind Speed Wind Dir Waves Ship Positions

Wayne Bethel

Owner: Kirby Inland Marine LP, Houston, TX. More information available from US FCC via Universal Licensing System and Coast Guard Vessel Documentation Center.

Last reported at 2018-Jun-20 08:34 UTC. Time now 2018-Jun-20 16:56 UTC.
Position N 29°50' W 091°50'.

Length 222 m; draft 3 m.

Type: . MMSI: 367672380.

Date/timePositionNaut miles runAvg speedWind from/ knotsBaromVisibWave heightAir tempDewpointWater temp
2018-Jun-20 08:34N 29°50' W 091°50'0 2.4
2018-Jun-20 08:23N 29°50' W 091°50'4 5.3
2018-Jun-20 07:33N 29°51' W 091°55'0 5.9
2018-Jun-20 07:30N 29°51' W 091°55'3 5.6
2018-Jun-20 07:00N 29°50' W 091°58'3 5.6
2018-Jun-20 06:30N 29°49' W 092°01'3 5.3
2018-Jun-20 06:01N 29°48' W 092°04'2 4.1
2018-Jun-20 05:30N 29°48' W 092°06'2 5.1
2018-Jun-20 05:01N 29°47' W 092°09'2 4.0
2018-Jun-20 04:30N 29°47' W 092°11'1 2.0
2018-Jun-20 04:00N 29°47' W 092°12'1 1.6
2018-Jun-20 03:30N 29°48' W 092°13'1 1.1
2018-Jun-20 03:00N 29°48' W 092°14'0 0.0
2018-Jun-20 02:30N 29°48' W 092°14'0 0.0
2018-Jun-20 01:59N 29°48' W 092°14'1 1.6
2018-Jun-20 01:30N 29°48' W 092°15'0 0.4
2018-Jun-20 01:00N 29°48' W 092°15'0 0.0
2018-Jun-20 00:28N 29°48' W 092°15'0 0.9
2018-Jun-20 00:00N 29°48' W 092°15'0 0.4
2018-Jun-19 23:30N 29°48' W 092°16'0 0.0
2018-Jun-19 23:00N 29°48' W 092°16'0 0.0
2018-Jun-19 22:30N 29°48' W 092°16'0 0.0
2018-Jun-19 22:00N 29°48' W 092°16'0 0.1
2018-Jun-19 21:30N 29°48' W 092°16'0 0.3
2018-Jun-19 21:01N 29°48' W 092°16'0 0.5
2018-Jun-19 20:30N 29°49' W 092°16'1 1.2
2018-Jun-19 20:00N 29°49' W 092°17'0 0.0
2018-Jun-19 19:31N 29°49' W 092°17'0 0.0
2018-Jun-19 19:00N 29°49' W 092°17'0 0.0
2018-Jun-19 18:31N 29°49' W 092°17'0 0.0
2018-Jun-19 18:00N 29°49' W 092°17'1 1.1
2018-Jun-19 17:30N 29°49' W 092°17'1 1.0
2018-Jun-19 17:00N 29°49' W 092°18'0 0.0
2018-Jun-19 16:30N 29°50' W 092°18'0 0.2
2018-Jun-19 16:00N 29°50' W 092°18'0 0.0
2018-Jun-19 15:30N 29°50' W 092°18'0 0.5
2018-Jun-19 15:00N 29°50' W 092°18'2 3.5
2018-Jun-19 14:30N 29°50' W 092°20'2 4.1
2018-Jun-19 13:54N 29°52' W 092°22'2 4.2
2018-Jun-19 13:27N 29°53' W 092°24'2 5.0
2018-Jun-19 13:01N 29°53' W 092°26'35 4.7
2018-Jun-19 05:37N 29°56' W 093°06'1 4.7
2018-Jun-19 05:30N 29°56' W 093°07'2 4.9
2018-Jun-19 05:00N 29°56' W 093°10'2 4.9
2018-Jun-19 04:30N 29°58' W 093°11'2 4.0
2018-Jun-19 04:01N 29°59' W 093°13'2 3.7
2018-Jun-19 03:31N 30°01' W 093°14'1 2.6
2018-Jun-19 03:01N 30°02' W 093°15'2 3.1
2018-Jun-19 02:31N 30°03' W 093°16'2 3.0
2018-Jun-19 02:01N 30°05' W 093°17'1 2.4
2018-Jun-19 01:31N 30°05' W 093°18'1 1.3
2018-Jun-19 01:01N 30°06' W 093°18'0 0.2
2018-Jun-19 00:31N 30°06' W 093°18'0 0.0
2018-Jun-19 00:01N 30°06' W 093°18'0 0.0
2018-Jun-18 23:31N 30°06' W 093°18'0 0.0
2018-Jun-18 23:01N 30°06' W 093°18'0 0.0
2018-Jun-18 22:31N 30°06' W 093°18'0 0.0
2018-Jun-18 22:01N 30°06' W 093°18'0 0.0
2018-Jun-18 21:31N 30°06' W 093°18'0 0.0
2018-Jun-18 21:01N 30°06' W 093°18'0 0.0
2018-Jun-18 20:30N 30°06' W 093°18'0 0.0
2018-Jun-18 20:01N 30°06' W 093°18'0 0.0
2018-Jun-18 19:31N 30°06' W 093°18'0 0.1
2018-Jun-18 19:01N 30°06' W 093°18'0 0.1
2018-Jun-18 18:31N 30°06' W 093°18'0 0.0
2018-Jun-18 18:01N 30°06' W 093°18'0 0.0
2018-Jun-18 17:31N 30°06' W 093°18'0 0.0
2018-Jun-18 17:01N 30°06' W 093°18'0 0.0
2018-Jun-18 16:30N 30°06' W 093°18'1 1.1
2018-Jun-18 16:01N 30°06' W 093°19'0 0.3
2018-Jun-18 15:31N 30°06' W 093°19'0 0.0
2018-Jun-18 15:01N 30°06' W 093°19'1 2.2
2018-Jun-18 14:31N 30°05' W 093°20'2 4.3
2018-Jun-18 14:01N 30°04' W 093°21'2 3.4
2018-Jun-18 13:31N 30°04' W 093°23'0 0.5
2018-Jun-18 13:00N 30°04' W 093°24'0 0.1
2018-Jun-18 12:31N 30°04' W 093°24'0 0.2
2018-Jun-18 12:00N 30°04' W 093°24'0 0.1
2018-Jun-18 11:31N 30°04' W 093°24'0 0.7
2018-Jun-18 11:00N 30°04' W 093°24'0 0.2
2018-Jun-18 10:30N 30°04' W 093°24'0 0.0
2018-Jun-18 10:01N 30°04' W 093°24'0 0.0
2018-Jun-18 09:30N 30°04' W 093°24'0 0.0
2018-Jun-18 09:01N 30°04' W 093°24'0 0.0
2018-Jun-18 08:30N 30°04' W 093°24'0 0.0
2018-Jun-18 08:01N 30°04' W 093°24'0 0.0
2018-Jun-18 07:31N 30°04' W 093°24'0 0.0
2018-Jun-18 07:01N 30°04' W 093°24'0 0.0
2018-Jun-18 06:31N 30°04' W 093°24'0 0.0
2018-Jun-18 06:01N 30°04' W 093°24'0 0.0
2018-Jun-18 05:30N 30°04' W 093°24'0 0.1
2018-Jun-18 05:01N 30°04' W 093°24'0 0.0
2018-Jun-18 04:31N 30°04' W 093°24'0 0.0
2018-Jun-18 04:01N 30°04' W 093°24'0 0.0
2018-Jun-18 03:29N 30°04' W 093°24'0 0.0
2018-Jun-18 03:00N 30°04' W 093°24'0 0.0
2018-Jun-18 02:30N 30°04' W 093°24'0 0.1
2018-Jun-18 02:01N 30°04' W 093°24'0 0.0
2018-Jun-18 01:31N 30°04' W 093°24'0 0.0
2018-Jun-18 01:01N 30°04' W 093°24'0 0.0
2018-Jun-18 00:31N 30°04' W 093°24'0 0.0
2018-Jun-17 23:59N 30°04' W 093°24'0 0.0
2018-Jun-17 23:31N 30°04' W 093°24'2 3.0
2018-Jun-17 23:00N 30°04' W 093°26'2 5.1
2018-Jun-17 22:30N 30°04' W 093°29'2 4.6
2018-Jun-17 22:01N 30°04' W 093°32'3 5.1
2018-Jun-17 21:28N 30°04' W 093°35'2 5.3
2018-Jun-17 21:01N 30°04' W 093°38'3 6.3
2018-Jun-17 20:30N 30°04' W 093°41'3 6.1
2018-Jun-17 20:00N 30°02' W 093°44'3 6.2
2018-Jun-17 19:31N 29°60' W 093°47'3 6.8
2018-Jun-17 19:00N 29°58' W 093°50'3 5.1
2018-Jun-17 18:31N 29°56' W 093°52'3 6.4
2018-Jun-17 18:00N 29°54' W 093°54'3 6.2
2018-Jun-17 17:31N 29°51' W 093°56'2 4.3
2018-Jun-17 17:00N 29°49' W 093°58'1 1.8
2018-Jun-17 16:31N 29°49' W 093°59'2 3.3
2018-Jun-17 16:00N 29°48' W 094°00'2 4.7
2018-Jun-17 15:30N 29°47' W 094°02'2 4.8
2018-Jun-17 15:00N 29°45' W 094°04'2 4.7
2018-Jun-17 14:31N 29°44' W 094°06'2 4.8
2018-Jun-17 14:00N 29°42' W 094°08'2 4.4
2018-Jun-17 13:30N 29°41' W 094°11'2 3.8
2018-Jun-17 13:00N 29°40' W 094°13'2 4.0
2018-Jun-17 12:30N 29°40' W 094°15'2 4.1
2018-Jun-17 12:00N 29°39' W 094°17'2 4.2
2018-Jun-17 11:30N 29°38' W 094°19'2 4.3
2018-Jun-17 10:56N 29°36' W 094°22'2 4.0
2018-Jun-17 10:29N 29°36' W 094°23'2 3.4
2018-Jun-17 10:00N 29°35' W 094°25'2 4.0
2018-Jun-17 09:30N 29°34' W 094°27'2 4.6
2018-Jun-17 08:59N 29°32' W 094°29'2 4.7
2018-Jun-17 08:29N 29°31' W 094°31'16 3.2
2018-Jun-17 03:24N 29°22' W 094°47'2 5.1
2018-Jun-17 03:00N 29°24' W 094°49'9 7.0
2018-Jun-17 01:40N 29°32' W 094°54'1 6.3
2018-Jun-17 01:27N 29°33' W 094°55'3 6.2
2018-Jun-17 00:54N 29°36' W 094°57'3 6.6
2018-Jun-17 00:30N 29°38' W 094°58'3 6.7
2018-Jun-17 00:00N 29°41' W 094°59'7 0.1
2018-Jun-15 02:12N 29°45' W 095°06'0 0.0
2018-Jun-13 04:33N 29°46' W 095°06'0 0.0
2018-Jun-13 04:06N 29°46' W 095°06'0 0.0
2018-Jun-13 04:00N 29°46' W 095°06'4 0.3
2018-Jun-12 15:06N 29°44' W 095°02'2 7.6
2018-Jun-12 14:54N 29°42' W 095°01'4 8.2
2018-Jun-12 14:29N 29°40' W 094°58'4 8.8
2018-Jun-12 14:00N 29°36' W 094°57'6 9.2
2018-Jun-12 13:24N 29°31' W 094°53'4 9.5
2018-Jun-12 12:58N 29°28' W 094°51'510.0
2018-Jun-12 12:29N 29°23' W 094°49'4 5.2
2018-Jun-12 11:48N 29°24' W 094°45'0 0.1
2018-Jun-12 11:30N 29°24' W 094°45'16 3.1
2018-Jun-12 06:18N 29°33' W 094°29'2 4.5
2018-Jun-12 05:53N 29°34' W 094°27'2 3.8
2018-Jun-12 05:22N 29°35' W 094°25'1 2.9
2018-Jun-12 04:57N 29°36' W 094°24'3 5.5
2018-Jun-12 04:29N 29°36' W 094°22'3 5.9
2018-Jun-12 03:59N 29°38' W 094°19'2 5.2
2018-Jun-12 03:30N 29°39' W 094°16'3 6.1
2018-Jun-12 03:00N 29°40' W 094°13'2 4.9
2018-Jun-12 02:30N 29°41' W 094°10'3 5.3
2018-Jun-12 02:00N 29°43' W 094°08'3 5.6
2018-Jun-12 01:30N 29°44' W 094°05'3 5.6
2018-Jun-12 01:01N 29°46' W 094°03'3 5.3
2018-Jun-12 00:30N 29°48' W 094°00'2 3.9
2018-Jun-12 00:00N 29°49' W 093°59'0 0.0
2018-Jun-11 23:30N 29°49' W 093°59'0 0.0
2018-Jun-11 23:00N 29°49' W 093°59'0 0.0
2018-Jun-11 22:30N 29°49' W 093°59'0 0.0
2018-Jun-11 22:00N 29°49' W 093°59'0 0.0
2018-Jun-11 21:29N 29°49' W 093°59'1 1.5
2018-Jun-11 21:00N 29°49' W 093°58'2 3.9
2018-Jun-11 20:30N 29°51' W 093°57'3 6.6
2018-Jun-11 20:00N 29°54' W 093°54'4 7.3
2018-Jun-11 19:30N 29°57' W 093°52'3 6.2
2018-Jun-11 19:00N 29°59' W 093°49'3 6.4
2018-Jun-11 18:30N 30°00' W 093°46'3 5.7
2018-Jun-11 18:00N 30°03' W 093°44'2 4.7
2018-Jun-11 17:30N 30°05' W 093°43'2 3.4
2018-Jun-11 17:00N 30°06' W 093°43'1 1.9
2018-Jun-11 16:30N 30°07' W 093°42'1 1.9
2018-Jun-11 15:59N 30°08' W 093°42'0 0.7
2018-Jun-11 15:26N 30°09' W 093°42'1 1.5
2018-Jun-11 14:55N 30°09' W 093°42'0 0.0
2018-Jun-10 17:54N 30°09' W 093°42'1 1.5
2018-Jun-10 17:30N 30°09' W 093°42'1 1.8
2018-Jun-10 17:00N 30°09' W 093°43'0 0.5
2018-Jun-10 16:31N 30°09' W 093°43'1 1.5
2018-Jun-10 16:00N 30°09' W 093°42'0 0.5
2018-Jun-10 15:11N 30°08' W 093°41'0 0.2
2018-Jun-10 14:59N 30°08' W 093°41'0 0.1
2018-Jun-10 14:28N 30°08' W 093°41'0 0.1
2018-Jun-10 13:30N 30°09' W 093°41'1 1.3
2018-Jun-10 12:59N 30°08' W 093°42'1 1.7
2018-Jun-10 12:31N 30°08' W 093°42'0 0.6
2018-Jun-10 12:00N 30°07' W 093°42'0 0.2
2018-Jun-10 11:30N 30°07' W 093°42'1 1.4
2018-Jun-10 11:00N 30°07' W 093°42'1 2.7
2018-Jun-10 10:30N 30°06' W 093°43'2 3.3
2018-Jun-10 10:00N 30°04' W 093°43'1 1.8
2018-Jun-10 09:30N 30°03' W 093°42'1 2.7
2018-Jun-10 09:00N 30°04' W 093°41'  
Track history (hours):
 
Tides and Currents Weather Stations Pressure Air Temp Water Temp Dewpoint Dewpoint Depression Visibility Wind Speed Wind Dir Waves Ship Positions

Wayne Bethel

Owner: Kirby Inland Marine LP, Houston, TX. More information available from US FCC via Universal Licensing System and Coast Guard Vessel Documentation Center.

Last reported at 2018-Jun-20 08:34 UTC. Time now 2018-Jun-20 16:56 UTC.
Position N 29°50' W 091°50'.

Length 222 m; draft 3 m.

Type: . MMSI: 367672380.

Date/timePositionNaut miles runAvg speedWind from/ knotsBaromVisibWave heightAir tempDewpointWater temp
2018-Jun-20 08:34N 29°50' W 091°50'0 2.4
2018-Jun-20 08:23N 29°50' W 091°50'4 5.3
2018-Jun-20 07:33N 29°51' W 091°55'0 5.9
2018-Jun-20 07:30N 29°51' W 091°55'3 5.6
2018-Jun-20 07:00N 29°50' W 091°58'3 5.6
2018-Jun-20 06:30N 29°49' W 092°01'3 5.3
2018-Jun-20 06:01N 29°48' W 092°04'2 4.1
2018-Jun-20 05:30N 29°48' W 092°06'2 5.1
2018-Jun-20 05:01N 29°47' W 092°09'2 4.0
2018-Jun-20 04:30N 29°47' W 092°11'1 2.0
2018-Jun-20 04:00N 29°47' W 092°12'1 1.6
2018-Jun-20 03:30N 29°48' W 092°13'1 1.1
2018-Jun-20 03:00N 29°48' W 092°14'0 0.0
2018-Jun-20 02:30N 29°48' W 092°14'0 0.0
2018-Jun-20 01:59N 29°48' W 092°14'1 1.6
2018-Jun-20 01:30N 29°48' W 092°15'0 0.4
2018-Jun-20 01:00N 29°48' W 092°15'0 0.0
2018-Jun-20 00:28N 29°48' W 092°15'0 0.9
2018-Jun-20 00:00N 29°48' W 092°15'0 0.4
2018-Jun-19 23:30N 29°48' W 092°16'0 0.0
2018-Jun-19 23:00N 29°48' W 092°16'0 0.0
2018-Jun-19 22:30N 29°48' W 092°16'0 0.0
2018-Jun-19 22:00N 29°48' W 092°16'0 0.1
2018-Jun-19 21:30N 29°48' W 092°16'0 0.3
2018-Jun-19 21:01N 29°48' W 092°16'0 0.5
2018-Jun-19 20:30N 29°49' W 092°16'1 1.2
2018-Jun-19 20:00N 29°49' W 092°17'0 0.0
2018-Jun-19 19:31N 29°49' W 092°17'0 0.0
2018-Jun-19 19:00N 29°49' W 092°17'0 0.0
2018-Jun-19 18:31N 29°49' W 092°17'0 0.0
2018-Jun-19 18:00N 29°49' W 092°17'1 1.1
2018-Jun-19 17:30N 29°49' W 092°17'1 1.0
2018-Jun-19 17:00N 29°49' W 092°18'0 0.0
2018-Jun-19 16:30N 29°50' W 092°18'0 0.2
2018-Jun-19 16:00N 29°50' W 092°18'0 0.0
2018-Jun-19 15:30N 29°50' W 092°18'0 0.5
2018-Jun-19 15:00N 29°50' W 092°18'2 3.5
2018-Jun-19 14:30N 29°50' W 092°20'2 4.1
2018-Jun-19 13:54N 29°52' W 092°22'2 4.2
2018-Jun-19 13:27N 29°53' W 092°24'2 5.0
2018-Jun-19 13:01N 29°53' W 092°26'35 4.7
2018-Jun-19 05:37N 29°56' W 093°06'1 4.7
2018-Jun-19 05:30N 29°56' W 093°07'2 4.9
2018-Jun-19 05:00N 29°56' W 093°10'2 4.9
2018-Jun-19 04:30N 29°58' W 093°11'2 4.0
2018-Jun-19 04:01N 29°59' W 093°13'2 3.7
2018-Jun-19 03:31N 30°01' W 093°14'1 2.6
2018-Jun-19 03:01N 30°02' W 093°15'2 3.1
2018-Jun-19 02:31N 30°03' W 093°16'2 3.0
2018-Jun-19 02:01N 30°05' W 093°17'1 2.4
2018-Jun-19 01:31N 30°05' W 093°18'1 1.3
2018-Jun-19 01:01N 30°06' W 093°18'0 0.2
2018-Jun-19 00:31N 30°06' W 093°18'0 0.0
2018-Jun-19 00:01N 30°06' W 093°18'0 0.0
2018-Jun-18 23:31N 30°06' W 093°18'0 0.0
2018-Jun-18 23:01N 30°06' W 093°18'0 0.0
2018-Jun-18 22:31N 30°06' W 093°18'0 0.0
2018-Jun-18 22:01N 30°06' W 093°18'0 0.0
2018-Jun-18 21:31N 30°06' W 093°18'0 0.0
2018-Jun-18 21:01N 30°06' W 093°18'0 0.0
2018-Jun-18 20:30N 30°06' W 093°18'0 0.0
2018-Jun-18 20:01N 30°06' W 093°18'0 0.0
2018-Jun-18 19:31N 30°06' W 093°18'0 0.1
2018-Jun-18 19:01N 30°06' W 093°18'0 0.1
2018-Jun-18 18:31N 30°06' W 093°18'0 0.0
2018-Jun-18 18:01N 30°06' W 093°18'0 0.0
2018-Jun-18 17:31N 30°06' W 093°18'0 0.0
2018-Jun-18 17:01N 30°06' W 093°18'0 0.0
2018-Jun-18 16:30N 30°06' W 093°18'1 1.1
2018-Jun-18 16:01N 30°06' W 093°19'0 0.3
2018-Jun-18 15:31N 30°06' W 093°19'0 0.0
2018-Jun-18 15:01N 30°06' W 093°19'1 2.2
2018-Jun-18 14:31N 30°05' W 093°20'2 4.3
2018-Jun-18 14:01N 30°04' W 093°21'2 3.4
2018-Jun-18 13:31N 30°04' W 093°23'0 0.5
2018-Jun-18 13:00N 30°04' W 093°24'0 0.1
2018-Jun-18 12:31N 30°04' W 093°24'0 0.2
2018-Jun-18 12:00N 30°04' W 093°24'0 0.1
2018-Jun-18 11:31N 30°04' W 093°24'0 0.7
2018-Jun-18 11:00N 30°04' W 093°24'0 0.2
2018-Jun-18 10:30N 30°04' W 093°24'0 0.0
2018-Jun-18 10:01N 30°04' W 093°24'0 0.0
2018-Jun-18 09:30N 30°04' W 093°24'0 0.0
2018-Jun-18 09:01N 30°04' W 093°24'0 0.0
2018-Jun-18 08:30N 30°04' W 093°24'0 0.0
2018-Jun-18 08:01N 30°04' W 093°24'0 0.0
2018-Jun-18 07:31N 30°04' W 093°24'0 0.0
2018-Jun-18 07:01N 30°04' W 093°24'0 0.0
2018-Jun-18 06:31N 30°04' W 093°24'0 0.0
2018-Jun-18 06:01N 30°04' W 093°24'0 0.0
2018-Jun-18 05:30N 30°04' W 093°24'0 0.1
2018-Jun-18 05:01N 30°04' W 093°24'0 0.0
2018-Jun-18 04:31N 30°04' W 093°24'0 0.0
2018-Jun-18 04:01N 30°04' W 093°24'0 0.0
2018-Jun-18 03:29N 30°04' W 093°24'0 0.0
2018-Jun-18 03:00N 30°04' W 093°24'0 0.0
2018-Jun-18 02:30N 30°04' W 093°24'0 0.1
2018-Jun-18 02:01N 30°04' W 093°24'0 0.0
2018-Jun-18 01:31N 30°04' W 093°24'0 0.0
2018-Jun-18 01:01N 30°04' W 093°24'0 0.0
2018-Jun-18 00:31N 30°04' W 093°24'0 0.0
2018-Jun-17 23:59N 30°04' W 093°24'0 0.0
2018-Jun-17 23:31N 30°04' W 093°24'2 3.0
2018-Jun-17 23:00N 30°04' W 093°26'2 5.1
2018-Jun-17 22:30N 30°04' W 093°29'2 4.6
2018-Jun-17 22:01N 30°04' W 093°32'3 5.1
2018-Jun-17 21:28N 30°04' W 093°35'2 5.3
2018-Jun-17 21:01N 30°04' W 093°38'3 6.3
2018-Jun-17 20:30N 30°04' W 093°41'3 6.1
2018-Jun-17 20:00N 30°02' W 093°44'3 6.2
2018-Jun-17 19:31N 29°60' W 093°47'3 6.8
2018-Jun-17 19:00N 29°58' W 093°50'3 5.1
2018-Jun-17 18:31N 29°56' W 093°52'3 6.4
2018-Jun-17 18:00N 29°54' W 093°54'3 6.2
2018-Jun-17 17:31N 29°51' W 093°56'2 4.3
2018-Jun-17 17:00N 29°49' W 093°58'1 1.8
2018-Jun-17 16:31N 29°49' W 093°59'2 3.3
2018-Jun-17 16:00N 29°48' W 094°00'2 4.7
2018-Jun-17 15:30N 29°47' W 094°02'2 4.8
2018-Jun-17 15:00N 29°45' W 094°04'2 4.7
2018-Jun-17 14:31N 29°44' W 094°06'2 4.8
2018-Jun-17 14:00N 29°42' W 094°08'2 4.4
2018-Jun-17 13:30N 29°41' W 094°11'2 3.8
2018-Jun-17 13:00N 29°40' W 094°13'2 4.0
2018-Jun-17 12:30N 29°40' W 094°15'2 4.1
2018-Jun-17 12:00N 29°39' W 094°17'2 4.2
2018-Jun-17 11:30N 29°38' W 094°19'2 4.3
2018-Jun-17 10:56N 29°36' W 094°22'2 4.0
2018-Jun-17 10:29N 29°36' W 094°23'2 3.4
2018-Jun-17 10:00N 29°35' W 094°25'2 4.0
2018-Jun-17 09:30N 29°34' W 094°27'2 4.6
2018-Jun-17 08:59N 29°32' W 094°29'2 4.7
2018-Jun-17 08:29N 29°31' W 094°31'16 3.2
2018-Jun-17 03:24N 29°22' W 094°47'2 5.1
2018-Jun-17 03:00N 29°24' W 094°49'9 7.0
2018-Jun-17 01:40N 29°32' W 094°54'1 6.3
2018-Jun-17 01:27N 29°33' W 094°55'3 6.2
2018-Jun-17 00:54N 29°36' W 094°57'3 6.6
2018-Jun-17 00:30N 29°38' W 094°58'3 6.7
2018-Jun-17 00:00N 29°41' W 094°59'7 0.1
2018-Jun-15 02:12N 29°45' W 095°06'0 0.0
2018-Jun-13 04:33N 29°46' W 095°06'0 0.0
2018-Jun-13 04:06N 29°46' W 095°06'0 0.0
2018-Jun-13 04:00N 29°46' W 095°06'4 0.3
2018-Jun-12 15:06N 29°44' W 095°02'2 7.6
2018-Jun-12 14:54N 29°42' W 095°01'4 8.2
2018-Jun-12 14:29N 29°40' W 094°58'4 8.8
2018-Jun-12 14:00N 29°36' W 094°57'6 9.2
2018-Jun-12 13:24N 29°31' W 094°53'4 9.5
2018-Jun-12 12:58N 29°28' W 094°51'510.0
2018-Jun-12 12:29N 29°23' W 094°49'4 5.2
2018-Jun-12 11:48N 29°24' W 094°45'0 0.1
2018-Jun-12 11:30N 29°24' W 094°45'16 3.1
2018-Jun-12 06:18N 29°33' W 094°29'2 4.5
2018-Jun-12 05:53N 29°34' W 094°27'2 3.8
2018-Jun-12 05:22N 29°35' W 094°25'1 2.9
2018-Jun-12 04:57N 29°36' W 094°24'3 5.5
2018-Jun-12 04:29N 29°36' W 094°22'3 5.9
2018-Jun-12 03:59N 29°38' W 094°19'2 5.2
2018-Jun-12 03:30N 29°39' W 094°16'3 6.1
2018-Jun-12 03:00N 29°40' W 094°13'2 4.9
2018-Jun-12 02:30N 29°41' W 094°10'3 5.3
2018-Jun-12 02:00N 29°43' W 094°08'3 5.6
2018-Jun-12 01:30N 29°44' W 094°05'3 5.6
2018-Jun-12 01:01N 29°46' W 094°03'3 5.3
2018-Jun-12 00:30N 29°48' W 094°00'2 3.9
2018-Jun-12 00:00N 29°49' W 093°59'0 0.0
2018-Jun-11 23:30N 29°49' W 093°59'0 0.0
2018-Jun-11 23:00N 29°49' W 093°59'0 0.0
2018-Jun-11 22:30N 29°49' W 093°59'0 0.0
2018-Jun-11 22:00N 29°49' W 093°59'0 0.0
2018-Jun-11 21:29N 29°49' W 093°59'1 1.5
2018-Jun-11 21:00N 29°49' W 093°58'2 3.9
2018-Jun-11 20:30N 29°51' W 093°57'3 6.6
2018-Jun-11 20:00N 29°54' W 093°54'4 7.3
2018-Jun-11 19:30N 29°57' W 093°52'3 6.2
2018-Jun-11 19:00N 29°59' W 093°49'3 6.4
2018-Jun-11 18:30N 30°00' W 093°46'3 5.7
2018-Jun-11 18:00N 30°03' W 093°44'2 4.7
2018-Jun-11 17:30N 30°05' W 093°43'2 3.4
2018-Jun-11 17:00N 30°06' W 093°43'1 1.9
2018-Jun-11 16:30N 30°07' W 093°42'1 1.9
2018-Jun-11 15:59N 30°08' W 093°42'0 0.7
2018-Jun-11 15:26N 30°09' W 093°42'1 1.5
2018-Jun-11 14:55N 30°09' W 093°42'0 0.0
2018-Jun-10 17:54N 30°09' W 093°42'1 1.5
2018-Jun-10 17:30N 30°09' W 093°42'1 1.8
2018-Jun-10 17:00N 30°09' W 093°43'0 0.5
2018-Jun-10 16:31N 30°09' W 093°43'1 1.5
2018-Jun-10 16:00N 30°09' W 093°42'0 0.5
2018-Jun-10 15:11N 30°08' W 093°41'0 0.2
2018-Jun-10 14:59N 30°08' W 093°41'0 0.1
2018-Jun-10 14:28N 30°08' W 093°41'0 0.1
2018-Jun-10 13:30N 30°09' W 093°41'1 1.3
2018-Jun-10 12:59N 30°08' W 093°42'1 1.7
2018-Jun-10 12:31N 30°08' W 093°42'0 0.6
2018-Jun-10 12:00N 30°07' W 093°42'0 0.2
2018-Jun-10 11:30N 30°07' W 093°42'1 1.4
2018-Jun-10 11:00N 30°07' W 093°42'1 2.7
2018-Jun-10 10:30N 30°06' W 093°43'2 3.3
2018-Jun-10 10:00N 30°04' W 093°43'1 1.8
2018-Jun-10 09:30N 30°03' W 093°42'1 2.7
2018-Jun-10 09:00N 30°04' W 093°41'  

Dump ship's entire track history